createdAt,value
2023-01-23T02:02:36.447Z,6.70
2023-01-23T02:08:19.179Z,6.85
2023-01-23T02:10:48.559Z,6.80
2023-01-23T02:13:39.417Z,5.78
2023-01-23T02:16:08.780Z,5.82
2023-01-23T02:18:38.896Z,7.30
2023-01-23T02:21:07.713Z,6.00
2023-01-23T02:23:36.181Z,5.90
2023-01-23T02:26:05.913Z,5.75
2023-01-23T02:28:45.561Z,5.82
2023-01-23T02:31:16.456Z,6.07
2023-01-23T02:33:50.603Z,5.07
2023-01-23T02:36:24.868Z,4.95
2023-01-23T02:38:54.856Z,5.53
2023-01-23T02:41:28.785Z,5.95
2023-01-23T02:43:59.947Z,7.60
2023-01-23T02:46:28.273Z,6.03
2023-01-23T02:48:56.616Z,5.80
2023-01-23T02:51:25.703Z,5.40
2023-01-23T02:53:53.952Z,5.82
2023-01-23T02:56:24.786Z,3.72
2023-01-23T02:59:12.657Z,5.32
2023-01-23T03:01:44.912Z,3.92
2023-01-23T03:04:14.536Z,5.60
2023-01-23T03:06:42.482Z,5.10
2023-01-23T03:09:12.471Z,5.03
2023-01-23T03:11:42.750Z,5.43
2023-01-23T03:14:20.132Z,4.50
2023-01-23T03:16:51.610Z,5.72
2023-01-23T03:19:23.658Z,4.72
2023-01-23T03:21:51.987Z,5.07
2023-01-23T03:24:20.303Z,4.97
2023-01-23T03:26:48.937Z,4.05
2023-01-23T03:29:40.711Z,5.22
2023-01-23T03:32:09.287Z,4.55
2023-01-23T03:34:38.352Z,4.85
2023-01-23T03:37:08.135Z,5.60
2023-01-23T03:39:56.986Z,4.97
2023-01-23T03:42:26.070Z,5.10
2023-01-23T03:44:56.702Z,4.97
2023-01-23T03:47:27.336Z,4.32
2023-01-23T03:49:56.515Z,4.75
2023-01-23T03:52:24.515Z,5.22
2023-01-23T03:54:52.490Z,3.92
2023-01-23T03:57:21.013Z,3.47
2023-01-23T03:59:48.909Z,4.60
2023-01-23T04:02:19.893Z,4.55
2023-01-23T04:04:47.737Z,4.85
2023-01-23T04:07:15.523Z,5.03
2023-01-23T04:09:44.879Z,4.70
2023-01-23T04:12:12.708Z,4.40
2023-01-23T04:14:44.332Z,3.60
2023-01-23T04:17:14.660Z,3.75
2023-01-23T04:19:42.570Z,4.35
2023-01-23T04:22:10.633Z,5.68
2023-01-23T04:24:45.012Z,5.20
2023-01-23T04:27:13.161Z,5.68
2023-01-23T04:29:41.147Z,5.65
2023-01-23T04:32:10.335Z,8.95
2023-01-23T04:34:44.765Z,7.40
2023-01-23T04:37:12.660Z,5.53
2023-01-23T04:39:41.413Z,6.68
2023-01-23T04:42:09.802Z,6.25
2023-01-23T04:44:57.896Z,7.20
2023-01-23T04:47:44.584Z,7.25
2023-01-23T04:50:15.146Z,7.00
2023-01-23T04:52:46.523Z,6.93
2023-01-23T04:55:14.654Z,5.72
2023-01-23T04:57:45.507Z,6.07
2023-01-23T05:00:23.570Z,7.43
2023-01-23T05:02:52.068Z,6.85
2023-01-23T05:05:22.765Z,7.50
2023-01-23T05:07:53.542Z,5.90
2023-01-23T05:10:21.721Z,7.60
2023-01-23T05:12:50.803Z,8.43
2023-01-23T05:15:21.318Z,7.47
2023-01-23T05:17:52.726Z,7.35
2023-01-23T05:20:23.657Z,7.93
2023-01-23T05:22:52.824Z,7.88
2023-01-23T05:25:28.368Z,8.50
2023-01-23T05:27:57.840Z,7.70
2023-01-23T05:30:28.231Z,6.15
2023-01-23T05:33:10.638Z,7.68
2023-01-23T05:35:39.857Z,8.63
2023-01-23T05:38:08.438Z,8.43
2023-01-23T05:40:37.592Z,8.10
2023-01-23T05:43:18.371Z,9.15
2023-01-23T05:46:22.228Z,9.30
2023-01-23T05:48:52.970Z,7.70
2023-01-23T05:51:23.573Z,11.43
2023-01-23T05:53:53.120Z,10.27
2023-01-23T05:56:21.168Z,10.65
2023-01-23T05:59:12.046Z,9.93
2023-01-23T06:01:51.183Z,10.25
2023-01-23T06:04:38.989Z,12.07
2023-01-23T06:07:19.867Z,11.13
2023-01-23T06:09:51.684Z,9.60
2023-01-23T06:12:19.540Z,11.50
2023-01-23T06:14:47.975Z,12.18
2023-01-23T06:17:36.384Z,11.70
2023-01-23T06:20:06.867Z,11.68
2023-01-23T06:22:34.847Z,11.80
2023-01-23T06:25:12.792Z,11.98
2023-01-23T06:27:40.731Z,12.85
2023-01-23T06:30:10.741Z,13.25
2023-01-23T06:32:46.219Z,11.88
2023-01-23T06:35:18.708Z,12.25
2023-01-23T06:37:46.929Z,11.27
2023-01-23T06:40:19.056Z,13.40
2023-01-23T06:43:02.525Z,13.57
2023-01-23T06:45:31.524Z,12.48
2023-01-23T06:48:00.972Z,13.10
2023-01-23T06:50:29.841Z,12.40
2023-01-23T06:52:58.015Z,13.43
2023-01-23T06:55:26.567Z,12.57
2023-01-23T06:57:54.904Z,12.35
2023-01-23T07:00:23.456Z,12.98
2023-01-23T07:02:59.116Z,11.48
2023-01-23T07:05:27.507Z,12.00
2023-01-23T07:08:16.273Z,13.10
2023-01-23T11:06:47.658Z,20.70
2023-01-23T11:09:19.889Z,18.80
2023-01-23T11:12:14.323Z,19.05
2023-01-23T11:14:45.969Z,21.13
2023-01-23T11:17:18.450Z,19.90
2023-01-23T11:19:48.261Z,21.13
2023-01-23T11:22:35.018Z,23.38
2023-01-23T11:25:38.385Z,23.20
2023-01-23T11:28:38.534Z,22.35
2023-01-23T11:31:26.011Z,23.63
2023-01-23T11:34:08.048Z,22.13
2023-01-23T11:36:44.870Z,21.60
2023-01-23T11:39:26.895Z,20.88
2023-01-23T11:42:03.180Z,16.42
2023-01-23T11:44:55.160Z,21.40
2023-01-23T11:48:02.927Z,21.45
2023-01-23T11:51:04.936Z,22.60
2023-01-23T11:53:45.397Z,20.98
2023-01-23T11:56:38.726Z,18.40
2023-01-23T11:59:57.003Z,17.77
2023-01-23T12:03:06.067Z,17.83
2023-01-23T12:06:03.035Z,16.42
2023-01-23T12:09:08.987Z,19.08
2023-01-23T12:11:49.750Z,19.33
2023-01-23T12:14:24.134Z,21.95
2023-01-23T12:16:58.310Z,19.05
2023-01-23T12:19:40.604Z,20.17
2023-01-23T12:22:11.163Z,17.40
2023-01-23T12:24:57.679Z,16.58
2023-01-23T12:30:13.885Z,18.85
2023-01-23T12:38:29.070Z,14.18
2023-01-23T12:41:38.835Z,15.05
2023-01-23T12:44:31.661Z,14.00
2023-01-23T12:47:47.940Z,14.18
2023-01-23T12:50:51.753Z,16.38
2023-01-23T12:53:24.463Z,16.75
2023-01-23T12:56:29.368Z,16.83
2023-01-23T12:59:16.804Z,17.17
2023-01-23T13:03:46.319Z,16.67
2023-01-23T13:07:08.264Z,19.88
2023-01-23T13:10:17.840Z,20.77
2023-01-23T13:12:46.374Z,22.42
2023-01-23T13:16:14.903Z,20.92
2023-01-23T13:19:30.025Z,20.20
2023-01-23T13:22:27.357Z,20.45
2023-01-23T13:25:17.281Z,19.42
2023-01-23T13:29:30.332Z,20.77
2023-01-23T13:32:22.784Z,19.75
2023-01-23T13:35:46.812Z,17.88
2023-01-23T13:38:33.079Z,18.50
2023-01-23T13:41:40.233Z,19.53
2023-01-23T13:44:22.971Z,20.13
2023-01-23T14:20:42.747Z,15.45
2023-01-23T14:23:38.527Z,13.35
2023-01-23T14:27:52.566Z,13.13
2023-01-23T14:34:54.221Z,13.82
2023-01-23T14:37:30.582Z,13.68
2023-01-23T14:40:25.755Z,14.93
2023-01-23T14:43:08.049Z,14.82
2023-01-23T14:45:48.254Z,15.02
2023-01-23T14:48:17.405Z,15.40
2023-01-23T14:51:13.085Z,15.85
2023-01-23T14:53:41.855Z,15.55
2023-01-23T14:56:12.546Z,15.63
2023-01-23T14:58:42.690Z,15.63
2023-01-23T15:01:21.272Z,16.52
2023-01-23T15:04:00.216Z,16.80
2023-01-23T15:06:35.720Z,17.25
2023-01-23T15:09:14.954Z,16.42
2023-01-23T15:11:44.831Z,17.30
2023-01-23T15:14:29.576Z,14.38
2023-01-23T15:17:03.480Z,17.83
2023-01-23T15:19:40.515Z,19.08
2023-01-23T15:22:26.887Z,18.85
2023-01-23T15:31:39.392Z,19.20
2023-01-23T15:34:17.119Z,18.73
2023-01-23T15:37:22.921Z,19.35
2023-01-23T15:40:04.434Z,20.27
2023-01-23T15:43:25.983Z,20.30
2023-01-23T15:45:54.373Z,19.92
2023-01-23T15:48:29.091Z,19.48
2023-01-23T15:51:11.752Z,18.67
2023-01-23T15:53:46.596Z,20.63
2023-01-23T15:56:32.796Z,20.50
2023-01-23T15:59:03.048Z,19.85
2023-01-23T16:02:30.129Z,20.27
2023-01-23T19:34:19.844Z,13.88
2023-01-23T19:36:49.734Z,14.65
2023-01-23T19:39:20.111Z,14.35
2023-01-23T19:41:48.885Z,14.40
2023-01-23T19:44:17.541Z,14.93
2023-01-23T19:46:46.265Z,14.38
2023-01-23T19:49:15.100Z,14.65
2023-01-23T19:51:43.407Z,14.35
2023-01-23T19:54:12.818Z,14.68
2023-01-23T19:56:44.981Z,13.88
2023-01-23T19:59:13.246Z,14.77
2023-01-23T20:01:47.326Z,15.27
2023-01-23T20:04:22.438Z,14.38
2023-01-23T20:06:52.260Z,14.35
2023-01-23T20:09:20.792Z,16.50
2023-01-23T20:11:52.484Z,15.05
2023-01-23T20:14:27.459Z,16.02
2023-01-23T20:16:57.518Z,17.20
2023-01-23T20:19:27.137Z,17.80
2023-01-23T20:21:55.919Z,18.00
2023-01-23T20:24:24.645Z,17.92
2023-01-23T20:26:52.684Z,18.70
2023-01-23T20:29:20.713Z,19.48
2023-01-23T20:31:48.749Z,20.08
2023-01-23T20:34:16.758Z,20.17
2023-01-23T20:36:47.350Z,21.60
2023-01-23T20:39:16.082Z,22.17
2023-01-23T20:41:44.199Z,21.77
2023-01-23T20:44:19.655Z,21.35
2023-01-23T20:46:51.133Z,21.30
2023-01-23T20:49:20.351Z,21.23
2023-01-23T20:51:48.333Z,23.70
2023-01-23T20:54:18.122Z,22.05
2023-01-23T20:56:46.294Z,22.52
2023-01-23T20:59:34.847Z,21.85
2023-01-23T21:02:21.861Z,22.15
2023-01-23T21:04:50.655Z,23.75
2023-01-23T21:07:21.550Z,24.85
2023-01-23T21:09:49.749Z,27.08
2023-01-23T21:12:19.546Z,23.95
2023-01-23T21:14:49.697Z,25.73
2023-01-23T21:17:17.806Z,27.33
2023-01-23T21:19:47.012Z,26.00
2023-01-23T21:22:15.027Z,25.60
2023-01-23T21:24:42.979Z,26.45
2023-01-23T21:27:11.281Z,26.25
2023-01-23T21:29:39.253Z,25.65
2023-01-23T21:32:07.429Z,26.52
2023-01-23T21:34:37.706Z,28.20
2023-01-23T21:37:11.091Z,26.95
2023-01-23T21:39:41.508Z,22.50
2023-01-23T21:42:10.936Z,30.88
2023-01-23T21:44:39.547Z,29.75
2023-01-23T21:47:09.489Z,27.90
2023-01-23T21:49:40.040Z,26.98
2023-01-23T21:52:09.343Z,22.85
2023-01-23T21:54:41.761Z,21.63
2023-01-23T21:57:30.410Z,19.40
2023-01-23T22:00:19.063Z,20.30
2023-01-23T22:03:07.747Z,18.60
2023-01-23T22:05:37.207Z,18.15
2023-01-23T22:08:05.699Z,16.50
2023-01-23T22:10:33.876Z,16.25
2023-01-23T22:13:03.343Z,14.98
2023-01-23T22:15:31.718Z,13.93
2023-01-23T22:18:03.151Z,14.52
2023-01-23T22:20:32.444Z,15.57
2023-01-23T22:23:00.455Z,12.65
2023-01-23T22:25:28.709Z,15.13
2023-01-23T22:27:59.130Z,15.20
2023-01-23T22:30:32.730Z,10.98
2023-01-23T22:33:02.506Z,13.30
2023-01-23T22:35:30.588Z,12.90
2023-01-23T22:38:02.603Z,14.32
2023-01-23T22:40:30.775Z,14.23
2023-01-23T22:43:01.591Z,12.80
2023-01-23T22:45:30.079Z,14.18
2023-01-23T22:47:58.456Z,12.98
2023-01-23T22:50:27.511Z,14.55
2023-01-23T22:53:02.382Z,13.50
2023-01-23T22:55:34.507Z,13.52
2023-01-23T22:58:02.705Z,15.93
2023-01-23T23:00:31.738Z,16.00
2023-01-23T23:03:00.552Z,16.08
2023-01-23T23:05:34.509Z,14.95
2023-01-23T23:08:16.888Z,15.40
2023-01-23T23:11:03.773Z,14.85
2023-01-23T23:13:33.967Z,14.55
2023-01-23T23:16:11.703Z,14.30
2023-01-23T23:18:40.934Z,13.55
2023-01-23T23:21:18.679Z,15.30
2023-01-23T23:23:47.694Z,17.10
2023-01-23T23:26:16.687Z,17.73
2023-01-23T23:28:48.064Z,17.48
2023-01-23T23:31:16.467Z,15.32
2023-01-23T23:33:45.144Z,15.10
2023-01-23T23:36:16.787Z,14.18
2023-01-23T23:38:44.907Z,12.93
2023-01-23T23:41:15.926Z,14.18
2023-01-23T23:43:45.670Z,13.50
2023-01-23T23:46:16.302Z,12.63
2023-01-23T23:49:07.584Z,12.32
2023-01-23T23:51:39.447Z,13.10
2023-01-23T23:54:08.278Z,12.80
2023-01-23T23:56:37.454Z,13.38
2023-01-23T23:59:07.081Z,12.75
